Time;durP1;ratioP1;P1;durP2;ratioP2;P2;SDS_P1;SDS_P2;PMS_P1;PMS_P2;Temp;Humidity;BMP_temperature;BMP_pressure;BME280_temperature;BME280_humidity;BME280_pressure;Samples;Min_cycle;Max_cycle;Signal;HPM_P1;HPM_P2
2023/07/28 00:00:08;;;;;;;8.80;5.90;;;;;;;;;;106816;1250;61354;-79
2023/07/28 00:02:54;;;;;;;10.30;5.70;;;;;;;;;;106864;1249;61227;-80
2023/07/28 00:05:20;;;;;;;7.50;5.30;;;;;;;;;;106747;1251;61264;-80
2023/07/28 00:07:47;;;;;;;6.40;4.80;;;;;;;;;;106813;1250;61221;-79
2023/07/28 00:10:13;;;;;;;9.60;4.80;;;;;;;;;;106827;1249;61312;-79
2023/07/28 00:12:40;;;;;;;9.00;5.50;;;;;;;;;;106779;1256;61328;-80
2023/07/28 00:15:07;;;;;;;7.10;4.40;;;;;;;;;;106876;1250;61334;-80
2023/07/28 00:17:33;;;;;;;7.20;4.90;;;;;;;;;;106806;1254;61341;-79
2023/07/28 00:19:59;;;;;;;7.20;4.60;;;;;;;;;;106869;1250;61267;-79
2023/07/28 00:22:26;;;;;;;8.70;5.50;;;;;;;;;;106839;1250;61350;-80
2023/07/28 00:24:52;;;;;;;11.60;5.80;;;;;;;;;;107401;1253;61355;-80
2023/07/28 00:27:19;;;;;;;7.60;5.20;;;;;;;;;;107394;1253;61304;-80
2023/07/28 00:29:45;;;;;;;9.40;5.10;;;;;;;;;;107401;1250;61877;-80
2023/07/28 00:32:11;;;;;;;9.40;6.00;;;;;;;;;;107368;1250;61273;-80
2023/07/28 00:34:38;;;;;;;8.60;5.20;;;;;;;;;;107403;1254;61439;-80
2023/07/28 00:37:04;;;;;;;7.80;5.60;;;;;;;;;;107420;1249;61277;-80
2023/07/28 00:39:30;;;;;;;9.50;5.00;;;;;;;;;;107359;1251;61218;-80
2023/07/28 00:41:57;;;;;;;8.70;5.50;;;;;;;;;;107408;1252;61341;-80
2023/07/28 00:44:23;;;;;;;9.10;5.60;;;;;;;;;;107353;1251;61217;-80
2023/07/28 00:46:49;;;;;;;8.30;5.40;;;;;;;;;;107357;1255;61340;-80
2023/07/28 00:49:16;;;;;;;6.60;4.70;;;;;;;;;;107399;1250;61136;-80
2023/07/28 00:51:42;;;;;;;7.60;5.10;;;;;;;;;;107438;1250;59505;-80
2023/07/28 00:54:08;;;;;;;8.70;5.00;;;;;;;;;;107416;1249;61328;-80
2023/07/28 00:56:35;;;;;;;7.70;5.40;;;;;;;;;;107441;1250;61919;-80
2023/07/28 00:59:01;;;;;;;6.20;4.30;;;;;;;;;;107398;1250;61330;-80
2023/07/28 01:01:27;;;;;;;12.30;4.20;;;;;;;;;;107384;1255;61227;-80
2023/07/28 01:03:54;;;;;;;7.10;4.20;;;;;;;;;;107422;1253;61112;-80
2023/07/28 01:06:25;;;;;;;5.30;3.70;;;;;;;;;;107390;1250;61356;-80
2023/07/28 01:09:01;;;;;;;5.40;4.00;;;;;;;;;;107385;1253;61082;-80
2023/07/28 01:11:28;;;;;;;5.90;4.00;;;;;;;;;;107363;1250;61279;-80
2023/07/28 01:13:54;;;;;;;6.00;3.80;;;;;;;;;;107379;1249;61321;-80
2023/07/28 01:16:21;;;;;;;6.80;4.40;;;;;;;;;;107368;1249;61263;-80
2023/07/28 01:18:47;;;;;;;6.50;3.70;;;;;;;;;;107326;1255;61261;-80
2023/07/28 01:21:17;;;;;;;7.20;4.10;;;;;;;;;;107383;1255;61241;-80
2023/07/28 01:23:59;;;;;;;7.50;4.80;;;;;;;;;;107405;1250;61215;-80
2023/07/28 01:26:33;;;;;;;9.40;5.30;;;;;;;;;;107368;1249;61291;-80
2023/07/28 01:29:00;;;;;;;7.90;5.30;;;;;;;;;;107367;1250;61321;-80
2023/07/28 01:31:26;;;;;;;9.20;6.70;;;;;;;;;;107403;1250;61326;-80
2023/07/28 01:33:53;;;;;;;10.80;6.10;;;;;;;;;;107378;1250;61137;-80
2023/07/28 01:36:19;;;;;;;13.30;6.50;;;;;;;;;;107455;1250;61279;-80
2023/07/28 01:38:45;;;;;;;10.40;6.30;;;;;;;;;;107415;1249;62268;-80
2023/07/28 01:41:12;;;;;;;9.50;6.50;;;;;;;;;;107526;1250;61330;-80
2023/07/28 01:43:38;;;;;;;8.90;5.40;;;;;;;;;;107356;1249;61304;-80
2023/07/28 01:46:05;;;;;;;10.00;5.50;;;;;;;;;;109905;1249;58933;-80
2023/07/28 01:48:31;;;;;;;12.40;6.90;;;;;;;;;;109926;1250;59172;-80
2023/07/28 01:50:58;;;;;;;32.70;15.20;;;;;;;;;;109926;1249;58906;-80
2023/07/28 01:53:25;;;;;;;49.90;26.40;;;;;;;;;;109897;1249;58971;-80
2023/07/28 01:55:51;;;;;;;56.60;29.50;;;;;;;;;;109928;1249;58859;-81
2023/07/28 01:58:17;;;;;;;28.90;16.10;;;;;;;;;;109899;1250;59128;-80
2023/07/28 02:00:46;;;;;;;10.00;6.30;;;;;;;;;;109561;1250;59160;-80
2023/07/28 02:03:12;;;;;;;9.70;6.90;;;;;;;;;;107472;1250;61240;-80
2023/07/28 02:05:39;;;;;;;21.10;12.70;;;;;;;;;;107363;1255;61274;-80
2023/07/28 02:08:06;;;;;;;21.20;12.20;;;;;;;;;;108018;1249;59581;-80
2023/07/28 02:10:32;;;;;;;25.70;15.90;;;;;;;;;;107898;1250;61195;-80
2023/07/28 02:12:58;;;;;;;20.90;10.30;;;;;;;;;;107649;1249;61222;-80
2023/07/28 02:15:25;;;;;;;16.90;11.60;;;;;;;;;;107914;1250;60246;-80
2023/07/28 02:17:51;;;;;;;15.20;9.00;;;;;;;;;;107893;1250;59493;-80
2023/07/28 02:20:18;;;;;;;13.10;6.00;;;;;;;;;;108046;1250;60253;-80
2023/07/28 02:22:44;;;;;;;7.00;4.00;;;;;;;;;;108147;1250;61132;-80
2023/07/28 02:25:10;;;;;;;5.60;3.60;;;;;;;;;;108282;1250;25509;-81
2023/07/28 02:27:37;;;;;;;5.00;3.40;;;;;;;;;;108235;1250;22534;-80
2023/07/28 02:30:04;;;;;;;9.00;3.50;;;;;;;;;;107556;1252;61190;-80
2023/07/28 02:32:31;;;;;;;6.10;3.30;;;;;;;;;;107421;1250;61241;-80
2023/07/28 02:34:58;;;;;;;4.60;3.50;;;;;;;;;;107981;1249;61246;-80
2023/07/28 02:37:24;;;;;;;7.40;4.20;;;;;;;;;;107922;1249;59215;-80
2023/07/28 02:39:50;;;;;;;4.70;4.00;;;;;;;;;;108027;1251;61082;-80
2023/07/28 02:42:17;;;;;;;5.20;3.60;;;;;;;;;;107423;1253;61344;-80
2023/07/28 02:44:43;;;;;;;5.80;3.00;;;;;;;;;;107361;1251;61236;-80
2023/07/28 02:47:10;;;;;;;6.30;3.60;;;;;;;;;;107406;1252;61225;-80
2023/07/28 02:49:36;;;;;;;4.50;3.00;;;;;;;;;;107373;1251;61314;-80
2023/07/28 02:52:03;;;;;;;4.60;3.20;;;;;;;;;;107396;1254;61286;-80
2023/07/28 02:54:29;;;;;;;5.50;3.70;;;;;;;;;;107420;1250;61333;-80
2023/07/28 02:56:55;;;;;;;6.40;4.30;;;;;;;;;;107391;1249;61235;-80
2023/07/28 02:59:23;;;;;;;13.30;6.00;;;;;;;;;;107398;1249;61216;-80
2023/07/28 03:01:51;;;;;;;7.10;4.00;;;;;;;;;;107424;1250;61226;-80
2023/07/28 03:04:19;;;;;;;10.00;5.10;;;;;;;;;;109470;1249;60185;-80
2023/07/28 03:06:46;;;;;;;8.30;4.60;;;;;;;;;;110442;1249;59068;-80
2023/07/28 03:09:13;;;;;;;11.20;4.20;;;;;;;;;;109908;1250;59122;-80
2023/07/28 03:11:39;;;;;;;7.90;3.40;;;;;;;;;;109868;1254;59171;-80
2023/07/28 03:14:06;;;;;;;4.80;3.30;;;;;;;;;;108238;1250;61106;-80
2023/07/28 03:16:32;;;;;;;5.50;4.30;;;;;;;;;;107429;1254;59932;-80
2023/07/28 03:18:58;;;;;;;6.60;4.20;;;;;;;;;;107464;1250;61344;-80
2023/07/28 03:21:25;;;;;;;11.50;8.80;;;;;;;;;;107376;1250;61312;-80
2023/07/28 03:23:51;;;;;;;22.60;10.20;;;;;;;;;;107366;1255;61262;-80
2023/07/28 03:26:18;;;;;;;11.30;7.20;;;;;;;;;;107460;1255;61361;-80
2023/07/28 03:28:44;;;;;;;12.70;9.20;;;;;;;;;;107377;1253;61251;-80
2023/07/28 03:31:10;;;;;;;15.50;8.50;;;;;;;;;;107382;1250;61352;-80
2023/07/28 03:33:37;;;;;;;15.20;8.70;;;;;;;;;;107448;1250;61413;-80
2023/07/28 03:36:03;;;;;;;15.90;8.40;;;;;;;;;;107391;1250;61347;-80
2023/07/28 03:38:29;;;;;;;15.30;9.40;;;;;;;;;;107439;1250;61340;-80
2023/07/28 03:40:56;;;;;;;20.50;8.70;;;;;;;;;;107442;1250;61224;-80
2023/07/28 03:43:22;;;;;;;13.10;7.90;;;;;;;;;;107430;1253;61254;-80
2023/07/28 03:45:48;;;;;;;18.50;7.10;;;;;;;;;;107422;1250;61311;-80
2023/07/28 03:48:15;;;;;;;10.90;6.40;;;;;;;;;;107399;1249;60873;-80
2023/07/28 03:50:41;;;;;;;13.90;6.00;;;;;;;;;;107722;1254;59137;-80
2023/07/28 03:53:07;;;;;;;11.50;6.20;;;;;;;;;;107832;1251;61314;-80
2023/07/28 03:55:34;;;;;;;12.20;6.60;;;;;;;;;;108176;1253;58533;-80
2023/07/28 03:58:01;;;;;;;12.20;7.10;;;;;;;;;;107358;1254;61216;-80
2023/07/28 04:00:27;;;;;;;10.30;6.20;;;;;;;;;;107429;1250;61183;-80
2023/07/28 04:02:53;;;;;;;11.50;5.80;;;;;;;;;;107724;1249;60881;-80
2023/07/28 04:05:20;;;;;;;9.30;5.40;;;;;;;;;;108249;1250;22646;-80
2023/07/28 04:07:46;;;;;;;8.30;5.30;;;;;;;;;;108170;1253;23300;-80
2023/07/28 04:10:12;;;;;;;8.10;5.30;;;;;;;;;;108259;1252;22544;-80
2023/07/28 04:12:39;;;;;;;15.20;7.40;;;;;;;;;;110293;1250;58751;-80
2023/07/28 04:15:05;;;;;;;16.80;9.30;;;;;;;;;;108845;1252;23360;-80
2023/07/28 04:17:32;;;;;;;11.80;6.30;;;;;;;;;;108250;1249;22563;-80
2023/07/28 04:19:58;;;;;;;11.10;6.30;;;;;;;;;;108169;1251;44179;-80
2023/07/28 04:22:24;;;;;;;10.70;5.00;;;;;;;;;;108242;1250;56402;-80
2023/07/28 04:24:51;;;;;;;8.50;5.00;;;;;;;;;;108188;1255;61221;-80
2023/07/28 04:27:17;;;;;;;8.90;5.10;;;;;;;;;;107804;1251;61232;-80
2023/07/28 04:29:44;;;;;;;9.90;4.40;;;;;;;;;;107689;1253;61219;-80
2023/07/28 04:32:11;;;;;;;11.80;5.20;;;;;;;;;;107670;1255;61224;-80
2023/07/28 04:34:37;;;;;;;11.10;5.60;;;;;;;;;;107280;1255;61190;-80
2023/07/28 04:37:04;;;;;;;8.40;5.20;;;;;;;;;;107385;1254;61345;-80
2023/07/28 04:39:30;;;;;;;18.30;5.80;;;;;;;;;;107421;1251;61334;-80
2023/07/28 04:41:56;;;;;;;10.00;4.30;;;;;;;;;;107347;1254;61778;-80
2023/07/28 04:44:23;;;;;;;12.10;5.30;;;;;;;;;;107361;1256;61334;-80
2023/07/28 04:46:49;;;;;;;12.30;6.40;;;;;;;;;;107335;1252;61278;-80
2023/07/28 04:49:15;;;;;;;9.00;4.70;;;;;;;;;;107390;1254;61274;-80
2023/07/28 04:51:42;;;;;;;7.90;5.10;;;;;;;;;;107427;1250;61251;-80
2023/07/28 04:54:08;;;;;;;13.00;6.70;;;;;;;;;;107360;1251;61768;-80
2023/07/28 04:56:34;;;;;;;11.40;5.40;;;;;;;;;;107385;1253;61355;-80
2023/07/28 04:59:01;;;;;;;13.00;7.20;;;;;;;;;;107437;1251;61230;-80
2023/07/28 05:01:27;;;;;;;8.00;4.90;;;;;;;;;;107368;1254;61251;-80
2023/07/28 05:03:54;;;;;;;5.30;3.80;;;;;;;;;;107291;1255;61159;-80
2023/07/28 05:06:20;;;;;;;12.90;5.20;;;;;;;;;;107339;1252;61260;-80
2023/07/28 05:08:46;;;;;;;12.80;5.80;;;;;;;;;;107331;1254;61460;-80
2023/07/28 05:11:13;;;;;;;15.30;5.30;;;;;;;;;;107326;1251;61232;-80
2023/07/28 05:13:39;;;;;;;8.70;4.70;;;;;;;;;;107514;1254;61386;-80
2023/07/28 05:16:05;;;;;;;9.40;4.70;;;;;;;;;;107321;1249;61251;-80
2023/07/28 05:18:32;;;;;;;8.60;4.40;;;;;;;;;;107439;1251;61254;-80
2023/07/28 05:20:58;;;;;;;7.30;4.70;;;;;;;;;;107394;1254;61327;-80
2023/07/28 05:23:24;;;;;;;11.90;5.80;;;;;;;;;;107306;1251;61204;-80
2023/07/28 05:25:51;;;;;;;11.10;5.00;;;;;;;;;;107598;1250;61097;-80
2023/07/28 05:28:17;;;;;;;10.00;6.60;;;;;;;;;;108306;1251;23082;-80
2023/07/28 05:30:44;;;;;;;11.70;5.70;;;;;;;;;;108224;1251;22598;-80
2023/07/28 05:33:10;;;;;;;9.00;5.20;;;;;;;;;;108195;1251;22655;-80
2023/07/28 05:35:36;;;;;;;8.10;4.80;;;;;;;;;;108658;1251;22542;-80
2023/07/28 05:38:03;;;;;;;10.10;4.60;;;;;;;;;;108151;1251;25278;-80
2023/07/28 05:40:30;;;;;;;14.70;4.70;;;;;;;;;;108195;1251;22709;-80
2023/07/28 05:42:56;;;;;;;6.30;4.50;;;;;;;;;;108155;1251;61171;-80
2023/07/28 05:45:22;;;;;;;6.10;3.80;;;;;;;;;;108193;1249;22586;-80
2023/07/28 05:47:49;;;;;;;6.10;3.50;;;;;;;;;;108187;1251;22976;-80
2023/07/28 05:50:15;;;;;;;9.00;3.90;;;;;;;;;;108239;1251;23312;-80
2023/07/28 05:52:41;;;;;;;8.70;3.90;;;;;;;;;;108204;1253;25337;-80
2023/07/28 05:55:08;;;;;;;8.40;3.40;;;;;;;;;;108132;1251;57011;-80
2023/07/28 05:57:34;;;;;;;5.50;3.00;;;;;;;;;;108283;1251;22584;-80
2023/07/28 06:00:01;;;;;;;6.30;3.10;;;;;;;;;;108242;1251;22568;-80
2023/07/28 06:02:27;;;;;;;9.30;3.20;;;;;;;;;;108228;1251;22538;-80
2023/07/28 06:04:54;;;;;;;6.10;3.30;;;;;;;;;;108212;1250;22616;-80
2023/07/28 06:07:20;;;;;;;6.30;3.90;;;;;;;;;;108233;1251;22530;-80
2023/07/28 06:09:46;;;;;;;9.90;3.70;;;;;;;;;;108219;1251;37786;-81
2023/07/28 06:12:16;;;;;;;4.00;2.50;;;;;;;;;;108217;1253;22860;-80
2023/07/28 06:14:42;;;;;;;3.50;2.80;;;;;;;;;;108186;1249;22587;-80
2023/07/28 06:17:09;;;;;;;4.50;2.80;;;;;;;;;;108224;1251;24239;-80
2023/07/28 06:19:35;;;;;;;4.60;2.50;;;;;;;;;;108260;1250;22636;-81
2023/07/28 06:22:02;;;;;;;4.80;2.50;;;;;;;;;;108585;1253;22561;-80
2023/07/28 06:24:29;;;;;;;5.70;2.40;;;;;;;;;;108341;1250;24199;-80
2023/07/28 06:26:56;;;;;;;4.90;2.80;;;;;;;;;;108628;1251;22590;-80
2023/07/28 06:29:22;;;;;;;5.70;2.50;;;;;;;;;;108630;1251;22579;-80
2023/07/28 06:31:48;;;;;;;5.20;3.10;;;;;;;;;;108553;1249;44059;-80
2023/07/28 06:34:15;;;;;;;4.60;3.10;;;;;;;;;;108596;1251;26605;-80
2023/07/28 06:36:41;;;;;;;6.20;3.40;;;;;;;;;;108098;1251;61357;-80
2023/07/28 06:39:08;;;;;;;6.20;3.40;;;;;;;;;;108300;1250;60711;-80
2023/07/28 06:41:34;;;;;;;5.60;2.40;;;;;;;;;;108454;1251;59095;-80
2023/07/28 06:44:02;;;;;;;5.40;2.00;;;;;;;;;;108723;1250;55226;-80
2023/07/28 06:46:29;;;;;;;3.20;2.10;;;;;;;;;;108474;1250;61257;-80
2023/07/28 06:48:56;;;;;;;3.40;2.60;;;;;;;;;;108757;1251;22527;-80
2023/07/28 06:51:22;;;;;;;3.10;2.10;;;;;;;;;;108439;1251;60881;-81
2023/07/28 06:53:49;;;;;;;3.70;2.20;;;;;;;;;;108878;1251;57633;-81
2023/07/28 06:56:15;;;;;;;5.00;2.80;;;;;;;;;;108300;1253;57769;-80
2023/07/28 06:58:42;;;;;;;3.90;1.90;;;;;;;;;;108508;1250;58591;-80
2023/07/28 07:01:10;;;;;;;5.20;2.70;;;;;;;;;;108296;1252;61246;-80
2023/07/28 07:03:37;;;;;;;4.10;2.40;;;;;;;;;;107526;1251;59772;-80
2023/07/28 07:06:03;;;;;;;6.00;2.90;;;;;;;;;;107786;1254;61321;-81
2023/07/28 07:08:29;;;;;;;4.50;3.20;;;;;;;;;;107775;1251;61214;-81
2023/07/28 07:10:56;;;;;;;5.80;3.00;;;;;;;;;;107548;1251;167550;-80
2023/07/28 07:13:22;;;;;;;3.70;2.50;;;;;;;;;;107650;1251;61344;-80
2023/07/28 07:15:49;;;;;;;6.70;2.50;;;;;;;;;;107666;1251;59677;-80
2023/07/28 07:18:15;;;;;;;5.60;2.60;;;;;;;;;;107866;1251;61337;-80
2023/07/28 07:20:42;;;;;;;4.00;3.00;;;;;;;;;;107932;1252;61257;-81
2023/07/28 07:23:09;;;;;;;3.30;2.30;;;;;;;;;;107903;1251;61250;-80
2023/07/28 07:25:35;;;;;;;6.10;2.60;;;;;;;;;;107909;1251;61317;-80
2023/07/28 07:28:01;;;;;;;6.00;2.70;;;;;;;;;;107884;1253;60804;-80
2023/07/28 07:30:28;;;;;;;4.60;2.70;;;;;;;;;;108391;1249;60765;-81
2023/07/28 07:32:54;;;;;;;5.10;2.40;;;;;;;;;;108382;1251;22838;-81
2023/07/28 07:35:21;;;;;;;3.10;2.00;;;;;;;;;;108429;1251;26607;-80
2023/07/28 07:37:47;;;;;;;3.40;2.60;;;;;;;;;;108537;1251;23174;-81
2023/07/28 07:40:14;;;;;;;4.30;2.40;;;;;;;;;;108535;1251;24203;-81
2023/07/28 07:42:45;;;;;;;5.40;2.40;;;;;;;;;;108401;1251;23348;-80
2023/07/28 07:45:11;;;;;;;5.40;3.20;;;;;;;;;;108399;1251;22599;-80
2023/07/28 07:47:38;;;;;;;6.60;4.10;;;;;;;;;;108447;1251;22640;-80
2023/07/28 07:50:05;;;;;;;4.60;3.20;;;;;;;;;;108521;1250;23090;-81
2023/07/28 07:52:31;;;;;;;3.70;2.70;;;;;;;;;;108533;1251;22631;-80
2023/07/28 07:54:58;;;;;;;4.10;2.80;;;;;;;;;;108351;1249;23109;-80
2023/07/28 07:57:24;;;;;;;4.20;2.90;;;;;;;;;;108399;1254;23677;-80
2023/07/28 07:59:50;;;;;;;6.60;2.60;;;;;;;;;;108593;1251;25492;-81
2023/07/28 08:02:17;;;;;;;2.90;2.20;;;;;;;;;;108478;1250;23099;-80
2023/07/28 08:04:43;;;;;;;5.80;2.60;;;;;;;;;;108338;1250;25082;-81
2023/07/28 08:07:10;;;;;;;9.60;3.90;;;;;;;;;;108475;1251;22631;-80
2023/07/28 08:09:37;;;;;;;3.50;2.20;;;;;;;;;;108478;1251;24193;-80
2023/07/28 08:12:03;;;;;;;4.30;2.60;;;;;;;;;;108518;1250;22553;-80
2023/07/28 08:14:30;;;;;;;3.50;2.50;;;;;;;;;;108405;1251;22622;-81
2023/07/28 08:16:56;;;;;;;6.50;3.60;;;;;;;;;;108598;1249;22611;-81
2023/07/28 08:19:22;;;;;;;3.50;2.00;;;;;;;;;;108529;1250;22532;-81
2023/07/28 08:21:49;;;;;;;3.80;2.00;;;;;;;;;;108548;1251;22537;-80
2023/07/28 08:24:16;;;;;;;4.10;3.00;;;;;;;;;;108586;1249;37916;-81
2023/07/28 08:26:42;;;;;;;2.60;1.90;;;;;;;;;;108794;1251;22549;-81
2023/07/28 08:29:08;;;;;;;3.80;2.60;;;;;;;;;;108772;1250;23395;-81
2023/07/28 08:31:35;;;;;;;4.50;2.30;;;;;;;;;;108932;1250;25483;-81
2023/07/28 08:34:01;;;;;;;3.40;2.50;;;;;;;;;;108652;1250;22532;-81
2023/07/28 08:36:27;;;;;;;5.40;3.10;;;;;;;;;;108548;1249;24268;-80
2023/07/28 08:38:54;;;;;;;3.90;2.70;;;;;;;;;;108432;1249;22557;-81
2023/07/28 08:41:20;;;;;;;3.10;2.70;;;;;;;;;;108591;1251;22535;-81
2023/07/28 08:43:47;;;;;;;3.80;2.40;;;;;;;;;;108380;1251;22535;-81
2023/07/28 08:46:13;;;;;;;4.30;2.40;;;;;;;;;;108544;1250;22637;-81
2023/07/28 08:48:40;;;;;;;4.40;2.90;;;;;;;;;;108444;1249;22561;-81
2023/07/28 08:51:08;;;;;;;4.10;2.90;;;;;;;;;;108715;1251;25374;-81
2023/07/28 08:53:35;;;;;;;4.50;2.50;;;;;;;;;;108739;1250;22562;-81
2023/07/28 08:56:01;;;;;;;5.70;3.60;;;;;;;;;;108432;1250;58868;-81
2023/07/28 08:58:28;;;;;;;5.00;4.00;;;;;;;;;;110073;1250;22495;-81
2023/07/28 09:00:55;;;;;;;6.70;4.40;;;;;;;;;;108756;1250;23202;-81
2023/07/28 09:03:22;;;;;;;5.50;3.90;;;;;;;;;;108561;1249;23400;-81
2023/07/28 09:05:48;;;;;;;4.00;3.30;;;;;;;;;;108590;1251;23321;-81
2023/07/28 09:08:15;;;;;;;5.10;3.40;;;;;;;;;;108600;1249;23364;-80
2023/07/28 09:10:42;;;;;;;4.70;3.40;;;;;;;;;;108788;1250;23242;-80
2023/07/28 09:13:09;;;;;;;5.30;2.70;;;;;;;;;;108695;1253;22999;-80
2023/07/28 09:15:36;;;;;;;7.90;3.60;;;;;;;;;;108801;1251;22588;-80
2023/07/28 09:18:02;;;;;;;8.10;3.40;;;;;;;;;;109417;1251;22619;-80
2023/07/28 09:20:35;;;;;;;4.90;3.40;;;;;;;;;;110570;1250;22381;-80
2023/07/28 09:23:01;;;;;;;6.20;3.10;;;;;;;;;;110477;1250;58817;-80
2023/07/28 09:25:28;;;;;;;5.60;2.90;;;;;;;;;;108490;1250;25215;-80
2023/07/28 09:27:54;;;;;;;4.00;2.80;;;;;;;;;;108387;1250;22591;-80
2023/07/28 09:30:21;;;;;;;4.30;2.50;;;;;;;;;;108458;1249;22552;-80
2023/07/28 09:32:49;;;;;;;6.00;2.80;;;;;;;;;;108382;1249;26562;-80
2023/07/28 09:35:16;;;;;;;5.40;2.90;;;;;;;;;;108423;1250;56239;-79
2023/07/28 09:37:44;;;;;;;9.20;3.80;;;;;;;;;;108178;1253;61308;-80
2023/07/28 09:40:12;;;;;;;3.90;2.90;;;;;;;;;;107907;1250;61196;-80
2023/07/28 09:42:39;;;;;;;3.80;2.30;;;;;;;;;;108484;1250;27503;-80
2023/07/28 09:45:06;;;;;;;6.10;3.00;;;;;;;;;;108487;1249;22639;-80
2023/07/28 09:47:33;;;;;;;3.50;2.00;;;;;;;;;;108453;1249;23294;-80
2023/07/28 09:49:59;;;;;;;4.20;2.60;;;;;;;;;;108688;1250;56275;-80
2023/07/28 09:52:26;;;;;;;3.70;2.40;;;;;;;;;;108676;1249;35239;-80
2023/07/28 09:54:54;;;;;;;5.50;3.20;;;;;;;;;;107540;1251;61333;-80
2023/07/28 09:57:20;;;;;;;4.00;2.30;;;;;;;;;;107809;1249;61129;-80
2023/07/28 09:59:47;;;;;;;2.40;2.00;;;;;;;;;;107875;1251;61389;-80
2023/07/28 10:02:13;;;;;;;3.20;1.80;;;;;;;;;;107776;1250;61113;-80
2023/07/28 10:04:40;;;;;;;2.90;1.90;;;;;;;;;;107626;1250;61239;-81
2023/07/28 10:07:07;;;;;;;3.20;2.10;;;;;;;;;;107563;1253;61322;-80
2023/07/28 10:09:34;;;;;;;2.80;1.90;;;;;;;;;;108335;1250;62220;-80
2023/07/28 10:12:01;;;;;;;3.20;2.20;;;;;;;;;;107950;1251;61240;-80
2023/07/28 10:14:31;;;;;;;4.40;1.80;;;;;;;;;;107812;1253;61406;-80
2023/07/28 10:16:58;;;;;;;2.10;1.60;;;;;;;;;;107874;1250;61360;-80
2023/07/28 10:19:28;;;;;;;3.50;2.00;;;;;;;;;;107714;1250;61177;-80
2023/07/28 10:22:02;;;;;;;2.10;1.60;;;;;;;;;;107687;1249;61251;-80
2023/07/28 10:25:05;;;;;;;5.70;2.80;;;;;;;;;;107492;1254;61263;-79
2023/07/28 10:27:36;;;;;;;3.30;1.90;;;;;;;;;;107275;1256;61115;-80
2023/07/28 10:30:09;;;;;;;2.30;1.60;;;;;;;;;;107677;1250;61171;-80
2023/07/28 10:32:39;;;;;;;4.00;2.20;;;;;;;;;;107551;1250;59209;-80
2023/07/28 10:35:06;;;;;;;4.00;2.10;;;;;;;;;;109839;1250;59135;-80
2023/07/28 10:37:33;;;;;;;2.40;1.80;;;;;;;;;;108631;1254;61257;-80
2023/07/28 10:40:21;;;;;;;3.10;1.50;;;;;;;;;;107774;1251;61380;-80
2023/07/28 10:42:48;;;;;;;3.20;2.00;;;;;;;;;;107617;1253;61353;-80
2023/07/28 10:45:15;;;;;;;2.60;1.40;;;;;;;;;;108295;1249;59017;-80
2023/07/28 10:47:41;;;;;;;5.40;2.30;;;;;;;;;;108520;1250;22626;-80
2023/07/28 10:50:10;;;;;;;3.00;1.70;;;;;;;;;;108578;1249;22543;-80
2023/07/28 10:52:43;;;;;;;3.50;1.80;;;;;;;;;;107873;1249;61251;-80
2023/07/28 10:55:16;;;;;;;5.70;2.00;;;;;;;;;;108212;1249;59048;-80
2023/07/28 10:57:43;;;;;;;3.70;2.20;;;;;;;;;;108454;1249;56328;-80
2023/07/28 11:00:13;;;;;;;3.90;2.50;;;;;;;;;;108595;1250;22531;-80
2023/07/28 11:02:42;;;;;;;4.00;2.00;;;;;;;;;;108557;1249;22558;-80
2023/07/28 11:05:13;;;;;;;2.70;1.90;;;;;;;;;;108449;1249;22657;-80
2023/07/28 11:07:43;;;;;;;2.40;1.80;;;;;;;;;;108530;1249;22528;-80
2023/07/28 11:10:11;;;;;;;2.90;1.60;;;;;;;;;;108556;1249;25480;-80
2023/07/28 11:12:42;;;;;;;2.70;1.90;;;;;;;;;;108567;1249;22571;-80
2023/07/28 11:15:10;;;;;;;2.60;1.40;;;;;;;;;;108345;1250;57061;-81
2023/07/28 11:17:38;;;;;;;2.30;1.80;;;;;;;;;;107674;1249;61241;-80
2023/07/28 11:20:07;;;;;;;1.90;1.40;;;;;;;;;;108074;1249;62008;-80
2023/07/28 11:22:36;;;;;;;2.10;1.50;;;;;;;;;;108096;1249;61198;-80
2023/07/28 11:25:09;;;;;;;2.30;1.40;;;;;;;;;;108296;1249;59524;-80
2023/07/28 11:27:38;;;;;;;2.00;1.50;;;;;;;;;;108330;1250;61274;-80
2023/07/28 11:30:09;;;;;;;2.20;1.50;;;;;;;;;;108337;1253;61091;-80
2023/07/28 11:32:36;;;;;;;4.40;1.50;;;;;;;;;;107629;1250;61288;-80
2023/07/28 11:35:05;;;;;;;2.50;2.10;;;;;;;;;;107571;1249;61205;-80
2023/07/28 11:37:38;;;;;;;1.90;1.40;;;;;;;;;;107620;1249;61326;-80
2023/07/28 11:40:10;;;;;;;2.90;1.50;;;;;;;;;;107630;1253;62451;-80
2023/07/28 11:42:37;;;;;;;2.30;1.70;;;;;;;;;;107887;1249;61591;-80
2023/07/28 11:45:04;;;;;;;4.00;1.90;;;;;;;;;;108951;1250;22575;-80
2023/07/28 11:47:30;;;;;;;2.10;1.70;;;;;;;;;;108501;1249;25303;-80
2023/07/28 11:49:58;;;;;;;2.50;1.50;;;;;;;;;;108601;1250;22530;-80
2023/07/28 11:52:28;;;;;;;2.30;1.50;;;;;;;;;;108437;1249;25168;-80
2023/07/28 11:54:55;;;;;;;2.70;1.60;;;;;;;;;;108382;1250;25286;-80
2023/07/28 11:57:21;;;;;;;2.20;1.30;;;;;;;;;;108437;1250;22532;-80
2023/07/28 11:59:48;;;;;;;2.40;1.10;;;;;;;;;;108473;1250;22567;-80
2023/07/28 12:02:14;;;;;;;3.10;1.50;;;;;;;;;;108644;1252;22516;-80
2023/07/28 12:04:42;;;;;;;5.50;1.30;;;;;;;;;;108403;1250;25410;-80
2023/07/28 12:07:13;;;;;;;2.10;1.00;;;;;;;;;;108141;1252;61141;-80
2023/07/28 12:09:46;;;;;;;2.40;1.40;;;;;;;;;;108070;1250;61334;-80
2023/07/28 12:12:12;;;;;;;2.40;1.10;;;;;;;;;;108540;1249;25465;-80
2023/07/28 12:14:39;;;;;;;2.70;1.20;;;;;;;;;;108525;1249;22570;-80
2023/07/28 12:17:12;;;;;;;1.50;1.10;;;;;;;;;;108552;1249;22566;-80
2023/07/28 12:19:43;;;;;;;1.40;0.70;;;;;;;;;;108532;1249;22562;-81
2023/07/28 12:22:09;;;;;;;2.00;1.10;;;;;;;;;;108092;1250;59661;-81
2023/07/28 12:24:35;;;;;;;4.40;0.60;;;;;;;;;;107592;1249;61113;-81
2023/07/28 12:27:02;;;;;;;0.90;0.80;;;;;;;;;;107820;1249;61249;-81
2023/07/28 12:29:28;;;;;;;1.30;1.00;;;;;;;;;;108277;1252;57158;-81
2023/07/28 12:31:55;;;;;;;5.40;3.30;;;;;;;;;;107697;1251;61266;-81
2023/07/28 12:34:21;;;;;;;1.50;1.00;;;;;;;;;;107637;1250;61258;-81
2023/07/28 12:36:48;;;;;;;1.70;1.10;;;;;;;;;;107628;1250;59412;-81
2023/07/28 12:39:15;;;;;;;3.80;1.30;;;;;;;;;;107801;1249;61167;-81
2023/07/28 12:41:41;;;;;;;2.50;1.30;;;;;;;;;;107652;1249;60997;-81
2023/07/28 12:44:07;;;;;;;2.70;1.00;;;;;;;;;;107518;1249;61219;-81
2023/07/28 12:46:34;;;;;;;2.50;1.20;;;;;;;;;;107655;1253;61186;-81
2023/07/28 12:49:00;;;;;;;3.70;1.50;;;;;;;;;;107586;1254;61942;-81
2023/07/28 12:51:27;;;;;;;1.50;1.20;;;;;;;;;;107661;1250;61334;-81
2023/07/28 12:53:53;;;;;;;1.70;1.00;;;;;;;;;;107589;1250;61195;-82
2023/07/28 12:56:19;;;;;;;1.70;0.90;;;;;;;;;;107691;1250;61246;-81
2023/07/28 12:58:46;;;;;;;2.50;0.90;;;;;;;;;;107621;1250;61302;-81
2023/07/28 13:01:12;;;;;;;2.50;1.10;;;;;;;;;;107652;1253;61299;-81
2023/07/28 13:03:38;;;;;;;2.10;1.30;;;;;;;;;;107662;1252;59613;-81
2023/07/28 13:06:05;;;;;;;2.50;1.10;;;;;;;;;;107692;1250;61096;-81
2023/07/28 13:08:32;;;;;;;2.40;1.40;;;;;;;;;;107705;1254;61240;-81
2023/07/28 13:10:58;;;;;;;1.70;1.10;;;;;;;;;;107741;1250;59524;-81
2023/07/28 13:13:24;;;;;;;3.60;1.50;;;;;;;;;;107525;1249;61328;-81
2023/07/28 13:15:51;;;;;;;2.70;1.70;;;;;;;;;;107604;1249;59967;-81
2023/07/28 13:18:17;;;;;;;2.90;1.60;;;;;;;;;;107673;1249;61288;-81
2023/07/28 13:20:44;;;;;;;2.20;1.60;;;;;;;;;;107601;1249;61385;-81
2023/07/28 13:23:10;;;;;;;4.90;1.70;;;;;;;;;;107594;1249;61303;-80
2023/07/28 13:25:36;;;;;;;4.70;3.00;;;;;;;;;;107570;1253;61269;-81
2023/07/28 13:28:03;;;;;;;2.70;1.50;;;;;;;;;;107653;1251;62399;-80
2023/07/28 13:30:30;;;;;;;2.30;1.40;;;;;;;;;;107578;1249;61272;-81
2023/07/28 13:32:56;;;;;;;2.30;1.80;;;;;;;;;;107571;1249;61306;-81
2023/07/28 13:35:24;;;;;;;2.80;1.60;;;;;;;;;;107801;1249;61368;-80
2023/07/28 13:37:51;;;;;;;2.20;1.80;;;;;;;;;;107893;1249;61239;-80
2023/07/28 13:40:17;;;;;;;2.00;1.30;;;;;;;;;;107822;1252;61367;-81
2023/07/28 13:42:43;;;;;;;4.10;1.70;;;;;;;;;;107578;1251;61202;-80
2023/07/28 13:45:10;;;;;;;5.40;1.40;;;;;;;;;;107508;1249;59788;-81
2023/07/28 13:47:36;;;;;;;2.20;1.60;;;;;;;;;;107595;1254;61259;-81
2023/07/28 13:50:03;;;;;;;2.80;1.30;;;;;;;;;;107630;1249;61087;-80
2023/07/28 13:52:29;;;;;;;2.10;1.50;;;;;;;;;;107669;1252;61275;-81
2023/07/28 13:54:55;;;;;;;1.90;1.50;;;;;;;;;;107840;1250;59633;-81
2023/07/28 13:57:22;;;;;;;2.00;1.40;;;;;;;;;;107870;1252;61217;-81
2023/07/28 13:59:48;;;;;;;1.90;1.40;;;;;;;;;;107866;1253;61240;-81
2023/07/28 14:02:16;;;;;;;2.00;1.70;;;;;;;;;;107642;1250;61349;-81
2023/07/28 14:04:42;;;;;;;1.90;1.40;;;;;;;;;;107432;1250;61210;-81
2023/07/28 14:07:08;;;;;;;3.00;1.80;;;;;;;;;;107687;1250;61354;-81
2023/07/28 14:09:36;;;;;;;4.80;1.60;;;;;;;;;;107677;1249;61116;-81
2023/07/28 14:12:03;;;;;;;3.30;2.00;;;;;;;;;;107873;1252;61114;-81
2023/07/28 14:14:29;;;;;;;3.30;1.30;;;;;;;;;;107728;1251;59192;-81
2023/07/28 14:16:56;;;;;;;1.70;1.50;;;;;;;;;;107672;1249;61216;-81
2023/07/28 14:19:22;;;;;;;2.70;1.30;;;;;;;;;;107338;1250;61216;-81
2023/07/28 14:21:48;;;;;;;3.70;1.50;;;;;;;;;;107370;1249;61295;-81
2023/07/28 14:24:15;;;;;;;3.40;1.90;;;;;;;;;;107404;1252;61284;-81